Time;durP1;ratioP1;P1;durP2;ratioP2;P2;SDS_P1;SDS_P2;PMS_P1;PMS_P2;Temp;Humidity;BMP_temperature;BMP_pressure;BME280_temperature;BME280_humidity;BME280_pressure;Samples;Min_cycle;Max_cycle;Signal;HPM_P1;HPM_P2
2023/06/29 00:00:22;;;;;;;31.70;24.20;;;;;;;;;;4889600;29;20103;-60
2023/06/29 00:02:52;;;;;;;32.55;24.17;;;;;;;;;;4872760;29;20064;-60
2023/06/29 00:05:21;;;;;;;42.00;27.77;;;;;;;;;;4874171;29;20040;-60
2023/06/29 00:07:47;;;;;;;33.47;25.88;;;;;;;;;;4889679;29;20043;-60
2023/06/29 00:10:13;;;;;;;38.13;27.45;;;;;;;;;;4888407;29;20032;-60
2023/06/29 00:12:40;;;;;;;37.22;27.35;;;;;;;;;;4872592;29;20036;-60
2023/06/29 00:15:06;;;;;;;33.47;26.38;;;;;;;;;;4889124;29;20041;-60
2023/06/29 00:17:34;;;;;;;37.75;27.63;;;;;;;;;;4888447;29;20056;-60
2023/06/29 00:20:00;;;;;;;35.95;27.27;;;;;;;;;;4887946;29;20080;-60
2023/06/29 00:22:26;;;;;;;40.40;29.13;;;;;;;;;;4886690;29;20032;-60
2023/06/29 00:24:56;;;;;;;40.90;30.58;;;;;;;;;;4888700;29;20047;-60
2023/06/29 00:27:23;;;;;;;40.88;27.27;;;;;;;;;;4887266;29;20067;-60
2023/06/29 00:29:49;;;;;;;41.80;30.85;;;;;;;;;;4887856;29;20047;-60
2023/06/29 00:32:15;;;;;;;41.97;31.02;;;;;;;;;;4888446;29;20347;-60
2023/06/29 00:34:41;;;;;;;40.78;29.38;;;;;;;;;;4887647;29;20488;-60
2023/06/29 00:37:07;;;;;;;39.10;29.30;;;;;;;;;;4888201;29;20115;-60
2023/06/29 00:39:33;;;;;;;41.97;29.85;;;;;;;;;;4887953;29;20059;-60
2023/06/29 00:42:00;;;;;;;41.88;29.70;;;;;;;;;;4886881;29;20046;-60
2023/06/29 00:44:26;;;;;;;41.95;29.88;;;;;;;;;;4888243;29;20069;-60
2023/06/29 00:46:53;;;;;;;38.00;29.23;;;;;;;;;;4887676;29;20568;-60
2023/06/29 00:49:19;;;;;;;35.08;29.17;;;;;;;;;;4888078;29;20039;-60
2023/06/29 00:51:48;;;;;;;37.00;30.38;;;;;;;;;;4887331;29;20050;-60
2023/06/29 00:54:14;;;;;;;42.35;30.83;;;;;;;;;;4886878;29;20039;-60
2023/06/29 00:56:41;;;;;;;40.53;30.95;;;;;;;;;;4887185;29;20798;-60
2023/06/29 00:59:07;;;;;;;39.65;30.75;;;;;;;;;;4887562;29;20885;-60
2023/06/29 01:01:34;;;;;;;38.00;29.90;;;;;;;;;;4886486;29;20040;-60
2023/06/29 01:04:00;;;;;;;41.22;29.27;;;;;;;;;;4886858;29;20115;-60
2023/06/29 01:06:31;;;;;;;38.63;28.95;;;;;;;;;;4886988;29;20036;-60
2023/06/29 01:09:04;;;;;;;36.15;29.10;;;;;;;;;;4887410;29;20195;-60
2023/06/29 01:11:31;;;;;;;36.47;30.33;;;;;;;;;;4885003;29;21824;-60
2023/06/29 01:13:57;;;;;;;36.20;28.90;;;;;;;;;;4885935;29;20695;-60
2023/06/29 01:16:23;;;;;;;38.00;29.33;;;;;;;;;;4886548;29;20064;-60
2023/06/29 01:18:51;;;;;;;37.08;28.88;;;;;;;;;;4886620;29;21545;-60
2023/06/29 01:21:18;;;;;;;40.78;29.08;;;;;;;;;;4886391;29;20537;-60
2023/06/29 01:23:45;;;;;;;37.58;29.05;;;;;;;;;;4885835;29;20031;-60
2023/06/29 01:26:12;;;;;;;41.67;29.25;;;;;;;;;;4885333;29;20028;-60
2023/06/29 01:28:38;;;;;;;35.58;28.27;;;;;;;;;;4886627;29;20029;-60
2023/06/29 01:31:05;;;;;;;41.92;30.38;;;;;;;;;;4887117;29;20040;-60
2023/06/29 01:33:32;;;;;;;40.45;30.40;;;;;;;;;;4886984;29;20067;-60
2023/06/29 01:36:02;;;;;;;40.08;30.10;;;;;;;;;;4887212;29;20169;-60
2023/06/29 01:38:33;;;;;;;38.42;29.13;;;;;;;;;;4886347;29;20107;-60
2023/06/29 01:41:00;;;;;;;40.88;31.17;;;;;;;;;;4885483;29;20044;-60
2023/06/29 01:43:28;;;;;;;42.17;31.20;;;;;;;;;;4886667;29;20115;-60
2023/06/29 01:45:54;;;;;;;39.67;29.83;;;;;;;;;;4885685;29;20032;-60
2023/06/29 01:48:21;;;;;;;38.97;30.20;;;;;;;;;;4886037;29;20745;-60
2023/06/29 01:50:48;;;;;;;44.13;32.95;;;;;;;;;;4886190;29;20040;-60
2023/06/29 01:53:14;;;;;;;41.03;29.60;;;;;;;;;;4886267;29;20038;-60
2023/06/29 01:55:40;;;;;;;36.22;27.90;;;;;;;;;;4884868;29;20087;-60
2023/06/29 01:58:06;;;;;;;39.03;30.10;;;;;;;;;;4885196;29;20028;-60
2023/06/29 02:00:32;;;;;;;37.45;27.92;;;;;;;;;;4885693;29;20914;-60
2023/06/29 02:02:58;;;;;;;37.80;28.92;;;;;;;;;;4885965;29;20103;-60
2023/06/29 02:05:25;;;;;;;44.88;31.08;;;;;;;;;;4886315;29;20664;-60
2023/06/29 02:07:51;;;;;;;40.33;30.85;;;;;;;;;;4886337;29;20040;-60
2023/06/29 02:10:17;;;;;;;38.22;28.10;;;;;;;;;;4886022;29;20036;-60
2023/06/29 02:12:44;;;;;;;37.17;28.23;;;;;;;;;;4885298;29;20044;-60
2023/06/29 02:15:10;;;;;;;40.60;29.33;;;;;;;;;;4885753;29;20063;-60
2023/06/29 02:17:36;;;;;;;40.88;29.98;;;;;;;;;;4886020;29;20048;-60
2023/06/29 02:20:02;;;;;;;35.67;27.35;;;;;;;;;;4886246;29;20037;-60
2023/06/29 02:22:28;;;;;;;42.47;29.42;;;;;;;;;;4885313;29;20040;-60
2023/06/29 02:24:54;;;;;;;39.70;29.02;;;;;;;;;;4885894;29;20044;-60
2023/06/29 02:27:20;;;;;;;41.55;31.02;;;;;;;;;;4888764;29;20095;-60
2023/06/29 02:29:46;;;;;;;39.70;28.58;;;;;;;;;;4889159;29;20043;-60
2023/06/29 02:32:12;;;;;;;44.15;31.38;;;;;;;;;;4888099;29;20051;-60
2023/06/29 02:34:38;;;;;;;39.75;30.25;;;;;;;;;;4888776;29;20036;-60
2023/06/29 02:37:04;;;;;;;42.83;28.80;;;;;;;;;;4888365;29;20029;-60
2023/06/29 02:39:31;;;;;;;39.88;31.05;;;;;;;;;;4887692;29;20053;-60
2023/06/29 02:41:57;;;;;;;44.72;30.95;;;;;;;;;;4888357;29;20046;-60
2023/06/29 02:44:23;;;;;;;38.58;28.30;;;;;;;;;;4888781;29;20040;-60
2023/06/29 02:46:49;;;;;;;39.75;29.35;;;;;;;;;;4888626;29;20132;-60
2023/06/29 02:49:15;;;;;;;39.47;28.90;;;;;;;;;;4887845;29;20051;-60
2023/06/29 02:51:42;;;;;;;41.03;29.02;;;;;;;;;;4888885;29;20143;-60
2023/06/29 02:54:08;;;;;;;41.50;30.52;;;;;;;;;;4888157;29;20040;-60
2023/06/29 02:56:34;;;;;;;38.95;29.77;;;;;;;;;;4888103;29;20036;-60
2023/06/29 02:59:00;;;;;;;38.08;28.85;;;;;;;;;;4889488;29;20036;-60
2023/06/29 03:01:26;;;;;;;38.50;28.52;;;;;;;;;;4889103;29;20038;-60
2023/06/29 03:03:52;;;;;;;39.25;28.55;;;;;;;;;;4888359;29;20036;-60
2023/06/29 03:06:18;;;;;;;43.08;30.77;;;;;;;;;;4888932;29;20041;-60
2023/06/29 03:08:44;;;;;;;39.88;29.42;;;;;;;;;;4889354;29;20048;-60
2023/06/29 03:11:10;;;;;;;41.65;28.25;;;;;;;;;;4888777;29;20084;-60
2023/06/29 03:13:36;;;;;;;38.83;30.52;;;;;;;;;;4889234;29;20061;-60
2023/06/29 03:16:02;;;;;;;35.80;27.02;;;;;;;;;;4888549;29;20063;-60
2023/06/29 03:18:28;;;;;;;39.15;29.33;;;;;;;;;;4888454;29;20718;-60
2023/06/29 03:20:54;;;;;;;40.65;30.88;;;;;;;;;;4888633;29;21786;-60
2023/06/29 03:23:21;;;;;;;36.00;26.42;;;;;;;;;;4889176;29;20123;-60
2023/06/29 03:25:47;;;;;;;32.75;27.02;;;;;;;;;;4888668;29;20056;-60
2023/06/29 03:28:13;;;;;;;39.17;28.02;;;;;;;;;;4888513;29;20036;-60
2023/06/29 03:30:39;;;;;;;37.78;27.73;;;;;;;;;;4888509;29;20488;-60
2023/06/29 03:33:05;;;;;;;38.80;26.80;;;;;;;;;;4888271;29;20680;-60
2023/06/29 03:35:31;;;;;;;36.25;27.60;;;;;;;;;;4888499;29;20036;-60
2023/06/29 03:37:57;;;;;;;35.35;27.98;;;;;;;;;;4887780;29;20032;-60
2023/06/29 03:40:23;;;;;;;37.13;26.90;;;;;;;;;;4888330;29;20158;-60
2023/06/29 03:42:49;;;;;;;34.72;25.70;;;;;;;;;;4888652;29;20092;-60
2023/06/29 03:45:16;;;;;;;35.70;27.27;;;;;;;;;;4888641;29;20044;-60
2023/06/29 03:47:42;;;;;;;31.35;24.08;;;;;;;;;;4888974;29;20228;-60
2023/06/29 03:50:08;;;;;;;37.08;27.92;;;;;;;;;;4888142;29;20071;-60
2023/06/29 03:52:34;;;;;;;36.28;26.90;;;;;;;;;;4886761;29;20048;-60
2023/06/29 03:55:00;;;;;;;38.85;26.17;;;;;;;;;;4887498;29;20049;-60
2023/06/29 03:57:26;;;;;;;32.33;25.65;;;;;;;;;;4888108;29;20036;-60
2023/06/29 03:59:52;;;;;;;35.88;26.27;;;;;;;;;;4888581;29;20028;-60
2023/06/29 04:02:18;;;;;;;35.40;25.40;;;;;;;;;;4887558;29;20087;-60
2023/06/29 04:04:45;;;;;;;33.58;25.40;;;;;;;;;;4888128;29;20762;-60
2023/06/29 04:07:11;;;;;;;37.08;25.00;;;;;;;;;;4887704;29;21770;-60
2023/06/29 04:09:37;;;;;;;32.42;23.92;;;;;;;;;;4887967;29;20051;-60
2023/06/29 04:12:03;;;;;;;29.70;23.77;;;;;;;;;;4872235;29;20036;-60
2023/06/29 04:14:29;;;;;;;32.95;24.27;;;;;;;;;;4887811;29;20029;-60
2023/06/29 04:16:55;;;;;;;33.30;24.15;;;;;;;;;;4887632;29;20052;-60
2023/06/29 04:19:22;;;;;;;33.03;23.90;;;;;;;;;;4887259;29;20028;-60
2023/06/29 04:21:48;;;;;;;32.33;23.02;;;;;;;;;;4887459;29;20040;-60
2023/06/29 04:24:14;;;;;;;32.13;23.35;;;;;;;;;;4887080;29;20032;-60
2023/06/29 04:26:41;;;;;;;31.40;22.45;;;;;;;;;;4887244;29;21570;-60
2023/06/29 04:29:07;;;;;;;31.88;23.98;;;;;;;;;;4888190;29;20155;-60
2023/06/29 04:31:33;;;;;;;32.90;24.17;;;;;;;;;;4888006;29;20040;-60
2023/06/29 04:33:59;;;;;;;34.15;24.77;;;;;;;;;;4886831;29;20056;-60
2023/06/29 04:36:26;;;;;;;29.88;22.75;;;;;;;;;;4886613;29;20028;-60
2023/06/29 04:38:53;;;;;;;33.35;23.73;;;;;;;;;;4887884;29;20040;-60
2023/06/29 04:41:19;;;;;;;31.15;23.83;;;;;;;;;;4886515;29;20064;-60
2023/06/29 04:43:47;;;;;;;30.52;22.63;;;;;;;;;;4887448;29;20695;-60
2023/06/29 04:46:14;;;;;;;29.70;21.67;;;;;;;;;;4886830;29;20036;-60
2023/06/29 04:48:40;;;;;;;32.03;21.88;;;;;;;;;;4886025;29;20079;-60
2023/06/29 04:51:06;;;;;;;33.70;22.77;;;;;;;;;;4886826;29;20032;-60
2023/06/29 04:53:33;;;;;;;29.70;21.52;;;;;;;;;;4887629;29;20589;-60
2023/06/29 04:55:59;;;;;;;29.50;21.83;;;;;;;;;;4886055;29;20851;-61
2023/06/29 04:58:25;;;;;;;35.35;21.63;;;;;;;;;;4887210;29;20028;-61
2023/06/29 05:00:51;;;;;;;30.90;22.08;;;;;;;;;;4887434;29;20033;-61
2023/06/29 05:03:17;;;;;;;28.88;20.45;;;;;;;;;;4887290;29;20576;-61
2023/06/29 05:05:44;;;;;;;26.83;21.15;;;;;;;;;;4886533;29;20968;-61
2023/06/29 05:08:10;;;;;;;31.05;21.90;;;;;;;;;;4886629;29;20114;-61
2023/06/29 05:10:36;;;;;;;28.67;20.95;;;;;;;;;;4887004;29;20599;-61
2023/06/29 05:13:02;;;;;;;27.33;20.65;;;;;;;;;;4886923;29;20044;-61
2023/06/29 05:15:28;;;;;;;31.92;20.95;;;;;;;;;;4887230;29;20040;-62
2023/06/29 05:17:54;;;;;;;28.48;19.55;;;;;;;;;;4886818;29;20056;-61
2023/06/29 05:20:21;;;;;;;29.30;21.08;;;;;;;;;;4886346;29;20028;-61
2023/06/29 05:22:47;;;;;;;26.75;19.77;;;;;;;;;;4887126;29;20067;-61
2023/06/29 05:25:14;;;;;;;28.40;21.02;;;;;;;;;;4887228;29;20090;-61
2023/06/29 05:27:40;;;;;;;27.48;19.90;;;;;;;;;;4886816;29;20036;-61
2023/06/29 05:30:08;;;;;;;27.30;18.95;;;;;;;;;;4886744;29;20737;-61
2023/06/29 05:32:34;;;;;;;26.83;19.48;;;;;;;;;;4886904;29;20055;-61
2023/06/29 05:35:01;;;;;;;28.95;19.80;;;;;;;;;;4886869;29;20036;-61
2023/06/29 05:37:29;;;;;;;25.42;19.85;;;;;;;;;;4886924;29;20036;-61
2023/06/29 05:39:56;;;;;;;29.08;20.67;;;;;;;;;;4887425;29;20043;-61
2023/06/29 05:42:22;;;;;;;27.02;20.75;;;;;;;;;;4886285;29;20124;-61
2023/06/29 05:44:49;;;;;;;24.52;18.98;;;;;;;;;;4882009;29;20182;-61
2023/06/29 05:47:15;;;;;;;25.88;19.08;;;;;;;;;;4877517;29;20092;-61
2023/06/29 05:49:41;;;;;;;33.13;20.40;;;;;;;;;;4878869;29;20044;-61
2023/06/29 05:52:07;;;;;;;24.65;18.38;;;;;;;;;;4879297;29;20036;-62
2023/06/29 05:54:33;;;;;;;28.08;18.83;;;;;;;;;;4879884;29;20070;-61
2023/06/29 05:56:59;;;;;;;26.48;18.75;;;;;;;;;;4880572;29;20727;-61
2023/06/29 05:59:25;;;;;;;26.98;19.80;;;;;;;;;;4880690;29;20032;-61
2023/06/29 06:01:51;;;;;;;23.98;18.63;;;;;;;;;;4880805;29;20905;-61
2023/06/29 06:04:17;;;;;;;28.45;20.15;;;;;;;;;;4879306;29;20036;-61
2023/06/29 06:06:44;;;;;;;24.38;18.98;;;;;;;;;;4879443;29;20036;-61
2023/06/29 06:09:10;;;;;;;25.63;18.67;;;;;;;;;;4880268;29;20673;-61
2023/06/29 06:11:36;;;;;;;28.55;19.38;;;;;;;;;;4879637;29;20495;-61
2023/06/29 06:14:02;;;;;;;34.42;19.10;;;;;;;;;;4880272;29;20432;-61
2023/06/29 06:16:28;;;;;;;25.88;19.48;;;;;;;;;;4880514;29;20044;-61
2023/06/29 06:18:54;;;;;;;24.33;18.92;;;;;;;;;;4880862;29;20036;-61
2023/06/29 06:21:20;;;;;;;33.97;20.10;;;;;;;;;;4875544;29;20091;-61
2023/06/29 06:23:46;;;;;;;28.33;19.88;;;;;;;;;;4881139;29;20040;-61
2023/06/29 06:26:12;;;;;;;26.70;18.30;;;;;;;;;;4877852;29;20087;-61
2023/06/29 06:28:38;;;;;;;25.70;19.75;;;;;;;;;;4880369;29;20041;-61
2023/06/29 06:31:05;;;;;;;27.02;19.15;;;;;;;;;;4880679;29;20047;-61
2023/06/29 06:33:32;;;;;;;28.75;20.33;;;;;;;;;;4880644;29;20051;-61
2023/06/29 06:35:59;;;;;;;25.00;18.25;;;;;;;;;;4880848;29;20040;-61
2023/06/29 06:38:25;;;;;;;27.88;20.00;;;;;;;;;;4880862;29;20036;-62
2023/06/29 06:40:51;;;;;;;29.02;19.73;;;;;;;;;;4880526;29;20060;-61
2023/06/29 06:43:18;;;;;;;28.67;20.30;;;;;;;;;;4881832;29;20048;-61
2023/06/29 06:45:44;;;;;;;27.58;20.38;;;;;;;;;;4880423;29;21029;-62
2023/06/29 06:48:10;;;;;;;28.25;20.23;;;;;;;;;;4881489;29;20043;-62
2023/06/29 06:50:37;;;;;;;28.95;19.85;;;;;;;;;;4880401;29;20060;-61
2023/06/29 06:53:03;;;;;;;24.88;19.65;;;;;;;;;;4881269;29;20095;-61
2023/06/29 06:55:29;;;;;;;33.63;20.65;;;;;;;;;;4880710;29;20884;-62
2023/06/29 06:57:55;;;;;;;26.88;19.48;;;;;;;;;;4880621;29;20028;-62
2023/06/29 07:00:22;;;;;;;28.63;19.05;;;;;;;;;;4880881;29;20036;-61
2023/06/29 07:02:48;;;;;;;27.85;20.08;;;;;;;;;;4880806;29;20028;-61
2023/06/29 07:05:14;;;;;;;26.25;19.52;;;;;;;;;;4881177;29;20047;-62
2023/06/29 07:07:41;;;;;;;25.85;18.70;;;;;;;;;;4881289;29;20064;-61
2023/06/29 07:10:07;;;;;;;26.17;19.63;;;;;;;;;;4880830;29;21692;-61
2023/06/29 07:12:33;;;;;;;25.27;18.55;;;;;;;;;;4881657;29;20047;-61
2023/06/29 07:14:59;;;;;;;30.20;20.42;;;;;;;;;;4883806;29;20551;-61
2023/06/29 07:17:27;;;;;;;28.25;18.83;;;;;;;;;;4884114;29;20040;-61
2023/06/29 07:19:53;;;;;;;33.00;19.80;;;;;;;;;;4883885;29;20119;-61
2023/06/29 07:22:19;;;;;;;25.40;18.83;;;;;;;;;;4883942;29;20143;-61
2023/06/29 07:24:45;;;;;;;26.00;19.60;;;;;;;;;;4883845;29;20048;-61
2023/06/29 07:27:11;;;;;;;25.92;19.77;;;;;;;;;;4883977;29;20696;-61
2023/06/29 07:29:37;;;;;;;28.65;19.73;;;;;;;;;;4883439;29;20143;-61
2023/06/29 07:32:04;;;;;;;27.13;19.63;;;;;;;;;;4868176;29;20815;-61
2023/06/29 07:34:30;;;;;;;28.95;20.63;;;;;;;;;;4883953;29;20808;-61
2023/06/29 07:36:56;;;;;;;25.98;19.27;;;;;;;;;;4884520;29;20032;-61
2023/06/29 07:39:22;;;;;;;28.05;19.27;;;;;;;;;;4884520;29;20043;-61
2023/06/29 07:41:49;;;;;;;30.67;19.35;;;;;;;;;;4883584;29;20443;-61
2023/06/29 07:44:15;;;;;;;27.85;18.73;;;;;;;;;;4883499;29;20755;-61
2023/06/29 07:46:41;;;;;;;27.52;19.65;;;;;;;;;;4883598;29;20036;-61
2023/06/29 07:49:07;;;;;;;30.48;20.20;;;;;;;;;;4883421;29;20048;-61
2023/06/29 07:51:34;;;;;;;29.45;20.88;;;;;;;;;;4882819;29;20143;-61
2023/06/29 07:54:04;;;;;;;31.63;21.00;;;;;;;;;;4883332;29;20055;-61
2023/06/29 07:56:33;;;;;;;31.90;21.58;;;;;;;;;;4883182;29;20548;-61
2023/06/29 07:58:59;;;;;;;33.05;21.25;;;;;;;;;;4882877;29;20625;-61
2023/06/29 08:01:26;;;;;;;29.13;21.30;;;;;;;;;;4883275;29;20696;-61
2023/06/29 08:03:52;;;;;;;31.45;22.65;;;;;;;;;;4882980;29;20067;-61
2023/06/29 08:06:18;;;;;;;27.88;20.35;;;;;;;;;;4867279;29;20033;-61
2023/06/29 08:08:44;;;;;;;27.75;21.25;;;;;;;;;;4882953;29;20040;-61
2023/06/29 08:11:16;;;;;;;27.02;21.15;;;;;;;;;;4882471;29;20032;-61
2023/06/29 08:13:42;;;;;;;28.77;20.33;;;;;;;;;;4883244;29;20044;-61
2023/06/29 08:16:09;;;;;;;32.97;20.80;;;;;;;;;;4882168;29;20044;-61
2023/06/29 08:18:35;;;;;;;30.83;21.38;;;;;;;;;;4882981;29;20427;-61
2023/06/29 08:21:01;;;;;;;29.23;21.50;;;;;;;;;;4882799;29;20040;-61
2023/06/29 08:23:27;;;;;;;29.70;22.33;;;;;;;;;;4882015;29;20620;-61
2023/06/29 08:25:54;;;;;;;29.35;21.38;;;;;;;;;;4883906;29;20036;-61
2023/06/29 08:28:20;;;;;;;26.00;21.02;;;;;;;;;;4883425;29;21378;-61
2023/06/29 08:30:46;;;;;;;27.35;20.65;;;;;;;;;;4883045;29;20565;-61
2023/06/29 08:33:12;;;;;;;29.10;20.60;;;;;;;;;;4867262;29;20043;-61
2023/06/29 08:35:38;;;;;;;30.13;21.58;;;;;;;;;;4883006;29;20033;-61
2023/06/29 08:38:05;;;;;;;27.88;20.98;;;;;;;;;;4865097;29;20043;-61
2023/06/29 08:40:32;;;;;;;27.13;20.95;;;;;;;;;;4882129;29;21833;-61
2023/06/29 08:42:58;;;;;;;30.63;23.35;;;;;;;;;;4882719;29;20407;-61
2023/06/29 08:45:24;;;;;;;29.90;21.45;;;;;;;;;;4882214;29;20162;-61
2023/06/29 08:47:53;;;;;;;29.27;21.88;;;;;;;;;;4881798;29;20087;-61
2023/06/29 08:50:26;;;;;;;31.17;22.75;;;;;;;;;;4881770;29;20207;-61
2023/06/29 08:52:53;;;;;;;36.10;23.90;;;;;;;;;;4880935;29;20028;-62
2023/06/29 08:55:19;;;;;;;29.17;22.83;;;;;;;;;;4879047;29;20110;-62
2023/06/29 08:57:45;;;;;;;33.63;24.08;;;;;;;;;;4882106;29;20113;-62
2023/06/29 09:00:13;;;;;;;33.28;23.75;;;;;;;;;;4876377;29;20040;-62
2023/06/29 09:02:39;;;;;;;35.78;25.17;;;;;;;;;;4880787;29;20071;-62
2023/06/29 09:05:05;;;;;;;31.38;22.58;;;;;;;;;;4882281;29;20047;-62
2023/06/29 09:07:31;;;;;;;33.42;24.60;;;;;;;;;;4881414;29;20036;-62
2023/06/29 09:09:58;;;;;;;36.25;24.88;;;;;;;;;;4881444;29;20040;-62
2023/06/29 09:12:24;;;;;;;33.70;24.52;;;;;;;;;;4881290;29;20047;-62
2023/06/29 09:14:50;;;;;;;33.50;23.38;;;;;;;;;;4881763;29;20437;-62
2023/06/29 09:17:18;;;;;;;36.38;24.23;;;;;;;;;;4881018;29;20452;-62
2023/06/29 09:19:57;;;;;;;31.95;24.15;;;;;;;;;;4880836;29;20119;-62
2023/06/29 09:22:28;;;;;;;32.67;25.17;;;;;;;;;;4880219;29;20096;-62
2023/06/29 09:24:58;;;;;;;31.90;24.02;;;;;;;;;;4881745;29;20115;-62
2023/06/29 09:27:24;;;;;;;32.67;24.30;;;;;;;;;;4880940;29;20036;-62
2023/06/29 09:29:51;;;;;;;30.13;23.85;;;;;;;;;;4881410;29;20059;-62
2023/06/29 09:32:17;;;;;;;33.53;25.15;;;;;;;;;;4881536;29;20044;-62
2023/06/29 09:34:47;;;;;;;30.23;23.65;;;;;;;;;;4881382;29;20043;-62
2023/06/29 09:37:16;;;;;;;32.03;24.48;;;;;;;;;;4882053;29;20032;-62
2023/06/29 09:39:59;;;;;;;30.33;23.15;;;;;;;;;;4881327;29;20119;-62
2023/06/29 09:42:25;;;;;;;31.75;22.17;;;;;;;;;;4881288;29;20068;-62
2023/06/29 09:44:51;;;;;;;34.05;22.90;;;;;;;;;;4881236;29;20123;-62
2023/06/29 09:47:19;;;;;;;30.58;21.45;;;;;;;;;;4864377;29;20040;-62
2023/06/29 09:49:47;;;;;;;30.00;21.60;;;;;;;;;;4881272;29;20891;-62
2023/06/29 09:52:14;;;;;;;28.08;21.92;;;;;;;;;;4881216;29;20661;-62
2023/06/29 09:54:40;;;;;;;33.97;22.73;;;;;;;;;;4881519;29;21794;-62
2023/06/29 09:57:07;;;;;;;33.53;24.25;;;;;;;;;;4880867;29;20388;-62
2023/06/29 09:59:38;;;;;;;29.67;23.35;;;;;;;;;;4879289;29;20162;-62
2023/06/29 10:02:04;;;;;;;29.10;21.70;;;;;;;;;;4873955;29;20040;-62
2023/06/29 10:04:30;;;;;;;30.92;24.20;;;;;;;;;;4873541;29;20048;-62
2023/06/29 10:07:06;;;;;;;28.35;21.73;;;;;;;;;;4874475;29;20067;-62
2023/06/29 10:09:35;;;;;;;29.70;22.50;;;;;;;;;;4874854;29;20030;-59
2023/06/29 10:12:01;;;;;;;29.33;22.13;;;;;;;;;;4875067;29;20063;-60
2023/06/29 10:14:27;;;;;;;28.88;22.60;;;;;;;;;;4874047;29;20896;-60
2023/06/29 10:16:53;;;;;;;29.60;21.42;;;;;;;;;;4874468;29;20048;-60
2023/06/29 10:19:21;;;;;;;26.75;21.45;;;;;;;;;;4873863;29;20039;-60
2023/06/29 10:21:49;;;;;;;27.15;21.70;;;;;;;;;;4873788;29;20032;-61
2023/06/29 10:24:16;;;;;;;27.80;22.15;;;;;;;;;;4874977;29;20071;-61
2023/06/29 10:26:43;;;;;;;29.20;22.08;;;;;;;;;;4873610;29;20040;-61
2023/06/29 10:29:09;;;;;;;29.02;22.52;;;;;;;;;;4874841;29;20024;-61
2023/06/29 10:31:35;;;;;;;29.17;21.95;;;;;;;;;;4874324;29;20044;-61
2023/06/29 10:34:07;;;;;;;32.35;24.15;;;;;;;;;;4876905;29;20039;-61
2023/06/29 10:36:46;;;;;;;31.88;24.20;;;;;;;;;;4880958;29;20035;-61
2023/06/29 10:39:35;;;;;;;29.75;23.52;;;;;;;;;;4878574;29;20032;-61
2023/06/29 10:42:01;;;;;;;34.13;26.70;;;;;;;;;;4872807;29;20045;-61
2023/06/29 10:44:34;;;;;;;34.10;25.27;;;;;;;;;;4873840;29;20855;-61
2023/06/29 10:47:00;;;;;;;37.28;25.67;;;;;;;;;;4875218;29;20031;-61
2023/06/29 10:49:28;;;;;;;31.25;25.88;;;;;;;;;;4878451;29;21618;-61
2023/06/29 10:52:04;;;;;;;30.63;25.13;;;;;;;;;;4879006;29;20036;-61
2023/06/29 10:54:30;;;;;;;30.80;24.08;;;;;;;;;;4879236;29;20080;-61
2023/06/29 10:57:16;;;;;;;36.92;25.60;;;;;;;;;;4877275;29;20080;-61
2023/06/29 10:59:42;;;;;;;30.77;25.48;;;;;;;;;;4877618;29;20032;-61
2023/06/29 11:02:09;;;;;;;32.75;25.25;;;;;;;;;;4876092;29;20043;-61
2023/06/29 11:04:35;;;;;;;29.58;22.92;;;;;;;;;;4877805;29;20035;-61
2023/06/29 11:07:06;;;;;;;29.88;24.27;;;;;;;;;;4880084;29;20032;-61
2023/06/29 11:09:33;;;;;;;29.40;24.67;;;;;;;;;;4880285;29;20557;-61
2023/06/29 11:11:59;;;;;;;29.60;22.98;;;;;;;;;;4882982;29;20040;-61
2023/06/29 11:14:26;;;;;;;33.67;25.10;;;;;;;;;;4877445;29;20036;-61
2023/06/29 11:16:55;;;;;;;32.22;24.42;;;;;;;;;;4877605;29;20985;-61
2023/06/29 11:19:26;;;;;;;30.58;24.85;;;;;;;;;;4876813;29;20157;-61
2023/06/29 11:21:54;;;;;;;33.10;26.27;;;;;;;;;;4861707;29;20928;-61
2023/06/29 11:24:21;;;;;;;34.65;27.00;;;;;;;;;;4877778;29;20039;-61
2023/06/29 11:26:47;;;;;;;31.23;25.58;;;;;;;;;;4877798;29;20040;-61
2023/06/29 11:29:14;;;;;;;33.03;25.77;;;;;;;;;;4877618;29;20666;-61
2023/06/29 11:31:40;;;;;;;32.10;25.77;;;;;;;;;;4881618;29;20129;-61
2023/06/29 11:34:06;;;;;;;33.25;26.90;;;;;;;;;;4882520;29;20037;-61
2023/06/29 11:36:36;;;;;;;33.55;26.77;;;;;;;;;;4878417;29;20579;-61
2023/06/29 11:39:03;;;;;;;31.48;25.52;;;;;;;;;;4876897;29;20051;-61
2023/06/29 11:41:30;;;;;;;34.20;28.05;;;;;;;;;;4877020;29;20036;-61
2023/06/29 11:43:58;;;;;;;38.38;28.58;;;;;;;;;;4876533;29;20028;-61
2023/06/29 11:46:24;;;;;;;36.80;28.65;;;;;;;;;;4874832;29;20036;-61
2023/06/29 11:48:56;;;;;;;37.13;29.20;;;;;;;;;;4876610;29;20039;-61
2023/06/29 11:51:25;;;;;;;36.28;29.52;;;;;;;;;;4872528;29;20036;-61
2023/06/29 11:53:53;;;;;;;35.35;28.58;;;;;;;;;;4872494;29;20732;-61
2023/06/29 11:56:25;;;;;;;33.55;27.98;;;;;;;;;;4876155;29;20062;-61
2023/06/29 11:58:52;;;;;;;36.00;28.85;;;;;;;;;;4876090;29;20036;-61
2023/06/29 12:01:18;;;;;;;37.67;29.15;;;;;;;;;;4875770;29;20963;-61
2023/06/29 12:03:44;;;;;;;34.80;28.05;;;;;;;;;;4876861;29;20059;-61
2023/06/29 12:06:10;;;;;;;36.67;28.77;;;;;;;;;;4876572;29;20143;-61
2023/06/29 12:08:40;;;;;;;37.50;28.52;;;;;;;;;;4876672;29;20310;-61
2023/06/29 12:11:06;;;;;;;39.08;29.88;;;;;;;;;;4875927;29;20149;-61
2023/06/29 12:13:32;;;;;;;37.50;29.98;;;;;;;;;;4875526;29;20127;-61
2023/06/29 12:16:04;;;;;;;35.63;28.27;;;;;;;;;;4874578;29;20035;-61
2023/06/29 12:18:32;;;;;;;36.33;28.92;;;;;;;;;;4875895;29;22037;-61
2023/06/29 12:21:03;;;;;;;37.78;28.30;;;;;;;;;;4875147;29;20575;-61
2023/06/29 12:23:29;;;;;;;39.88;29.58;;;;;;;;;;4874331;29;20036;-61
2023/06/29 12:25:55;;;;;;;35.33;27.23;;;;;;;;;;4876922;29;20048;-61
2023/06/29 12:28:21;;;;;;;36.28;27.10;;;;;;;;;;4873534;29;20059;-61
2023/06/29 12:30:48;;;;;;;36.25;28.70;;;;;;;;;;4871690;29;20043;-61
2023/06/29 12:33:14;;;;;;;37.88;28.40;;;;;;;;;;4872031;29;20044;-61
2023/06/29 12:35:42;;;;;;;35.55;27.48;;;;;;;;;;4872266;29;20408;-61
2023/06/29 12:38:08;;;;;;;33.58;27.55;;;;;;;;;;4872195;29;20028;-61
2023/06/29 12:40:34;;;;;;;40.15;28.13;;;;;;;;;;4870621;29;20028;-61
2023/06/29 12:43:00;;;;;;;37.53;28.25;;;;;;;;;;4872432;29;20036;-61
2023/06/29 12:45:27;;;;;;;35.20;26.48;;;;;;;;;;4872963;29;20044;-61
2023/06/29 12:47:53;;;;;;;36.33;27.98;;;;;;;;;;4873734;29;20043;-61
2023/06/29 12:50:19;;;;;;;34.85;26.95;;;;;;;;;;4873383;29;22183;-61
2023/06/29 12:52:48;;;;;;;28.80;23.25;;;;;;;;;;4873138;29;20047;-61
2023/06/29 12:55:14;;;;;;;32.60;23.42;;;;;;;;;;4873597;29;20032;-61
2023/06/29 12:57:41;;;;;;;28.83;22.58;;;;;;;;;;4873639;29;20032;-61
2023/06/29 13:00:08;;;;;;;27.30;21.83;;;;;;;;;;4873336;29;20115;-61
2023/06/29 13:02:35;;;;;;;32.90;24.42;;;;;;;;;;4870343;29;20036;-61
2023/06/29 13:05:01;;;;;;;29.92;23.17;;;;;;;;;;4871492;29;20070;-61
2023/06/29 13:07:27;;;;;;;31.08;24.25;;;;;;;;;;4871908;29;20028;-61
2023/06/29 13:09:53;;;;;;;33.33;23.40;;;;;;;;;;4873372;29;20052;-61
2023/06/29 13:12:20;;;;;;;30.42;23.60;;;;;;;;;;4872445;29;20068;-61
2023/06/29 13:14:47;;;;;;;33.60;24.48;;;;;;;;;;4872390;29;20099;-61
2023/06/29 13:17:14;;;;;;;28.63;21.75;;;;;;;;;;4873148;29;20536;-61
2023/06/29 13:19:42;;;;;;;31.80;23.55;;;;;;;;;;4873715;29;20074;-61
2023/06/29 13:22:08;;;;;;;29.73;22.70;;;;;;;;;;4873113;29;20149;-61
2023/06/29 13:24:35;;;;;;;32.90;25.45;;;;;;;;;;4871582;29;20040;-61
2023/06/29 13:27:04;;;;;;;31.98;23.55;;;;;;;;;;4872298;29;20040;-61
2023/06/29 13:29:34;;;;;;;26.73;16.65;;;;;;;;;;4872271;29;20024;-61
2023/06/29 13:32:00;;;;;;;24.88;15.68;;;;;;;;;;4871790;29;21254;-61
2023/06/29 13:34:27;;;;;;;22.73;16.38;;;;;;;;;;4872784;29;20036;-61
2023/06/29 13:36:53;;;;;;;31.08;16.92;;;;;;;;;;4872788;29;20035;-61
2023/06/29 13:39:19;;;;;;;31.88;19.90;;;;;;;;;;4872720;29;20040;-61
2023/06/29 13:41:45;;;;;;;26.17;18.77;;;;;;;;;;4872621;29;20032;-61
2023/06/29 13:44:13;;;;;;;33.17;18.88;;;;;;;;;;4872629;29;20119;-61
2023/06/29 13:46:42;;;;;;;32.80;20.15;;;;;;;;;;4872154;29;20032;-61
2023/06/29 13:49:08;;;;;;;29.75;20.65;;;;;;;;;;4871175;29;20143;-61
2023/06/29 13:51:35;;;;;;;38.25;22.73;;;;;;;;;;4870806;29;20040;-61
2023/06/29 13:54:02;;;;;;;36.42;23.85;;;;;;;;;;4872572;29;20066;-61
2023/06/29 13:56:31;;;;;;;33.17;22.95;;;;;;;;;;4873139;29;20036;-61
2023/06/29 13:58:57;;;;;;;31.73;24.65;;;;;;;;;;4871937;29;20044;-61
2023/06/29 14:01:23;;;;;;;51.97;23.90;;;;;;;;;;4871554;29;20024;-61
2023/06/29 14:03:49;;;;;;;31.52;23.30;;;;;;;;;;4872321;29;20839;-61
2023/06/29 14:06:18;;;;;;;28.42;20.70;;;;;;;;;;4872538;29;20036;-62
2023/06/29 14:08:45;;;;;;;27.90;20.27;;;;;;;;;;4871429;29;20036;-61
2023/06/29 14:11:11;;;;;;;28.88;19.38;;;;;;;;;;4872138;29;20044;-61
2023/06/29 14:13:37;;;;;;;26.95;19.42;;;;;;;;;;4871855;29;20043;-61